Time;durP1;ratioP1;P1;durP2;ratioP2;P2;SDS_P1;SDS_P2;PMS_P1;PMS_P2;Temp;Humidity;BMP_temperature;BMP_pressure;BME280_temperature;BME280_humidity;BME280_pressure;Samples;Min_cycle;Max_cycle;Signal;HPM_P1;HPM_P2
2022/10/06 00:00:00;;;;;;;10.18;2.92;;;17.10;99.90;;;;;;6118356;23;20424;-79
2022/10/06 00:02:26;;;;;;;5.40;2.40;;;17.20;99.90;;;;;;6116250;23;20022;-80
2022/10/06 00:04:53;;;;;;;4.03;2.67;;;17.20;99.90;;;;;;6117974;23;20006;-80
2022/10/06 00:07:20;;;;;;;9.75;3.47;;;17.30;99.90;;;;;;6116772;23;20014;-80
2022/10/06 00:09:46;;;;;;;6.40;2.42;;;17.30;99.90;;;;;;6117117;23;20009;-80
2022/10/06 00:12:12;;;;;;;7.72;3.58;;;17.30;99.90;;;;;;6117665;23;20057;-80
2022/10/06 00:14:40;;;;;;;2.72;2.20;;;17.20;99.90;;;;;;6118486;23;20323;-80
2022/10/06 00:17:06;;;;;;;4.55;2.63;;;17.20;99.90;;;;;;6116350;23;20091;-79
2022/10/06 00:19:32;;;;;;;8.40;2.70;;;17.30;99.90;;;;;;6116768;23;20465;-79
2022/10/06 00:21:57;;;;;;;4.70;2.25;;;17.30;99.90;;;;;;6118416;23;21060;-80
2022/10/06 00:24:23;;;;;;;6.07;2.22;;;17.20;99.90;;;;;;6116030;23;20022;-78
2022/10/06 00:26:49;;;;;;;3.20;2.35;;;17.30;99.90;;;;;;6118471;23;20140;-80
2022/10/06 00:29:14;;;;;;;5.55;2.47;;;17.30;99.90;;;;;;6116162;23;20013;-79
2022/10/06 00:31:40;;;;;;;4.45;2.30;;;17.30;99.90;;;;;;6117915;23;20424;-79
2022/10/06 00:34:06;;;;;;;5.53;2.58;;;17.20;99.90;;;;;;6116954;23;20002;-81
2022/10/06 00:36:32;;;;;;;6.85;1.95;;;17.20;99.90;;;;;;6116772;23;20021;-80
2022/10/06 00:38:57;;;;;;;5.30;3.17;;;17.20;99.90;;;;;;6117454;23;20089;-79
2022/10/06 00:41:25;;;;;;;4.80;2.17;;;17.20;99.90;;;;;;6117419;23;19998;-79
2022/10/06 00:43:55;;;;;;;10.07;2.55;;;17.20;99.90;;;;;;6117174;23;19998;-79
2022/10/06 00:46:49;;;;;;;12.45;2.17;;;17.20;99.90;;;;;;6117712;23;20002;-79
2022/10/06 00:49:31;;;;;;;5.63;2.40;;;17.10;99.90;;;;;;6114982;23;20455;-79
2022/10/06 00:52:07;;;;;;;4.88;2.47;;;17.20;99.90;;;;;;6117103;23;20344;-79
2022/10/06 00:54:33;;;;;;;;;;;17.10;99.90;;;;;;6116444;23;20028;-80
2022/10/06 00:57:00;;;;;;;6.45;1.92;;;17.10;99.90;;;;;;6117753;23;20308;-79
2022/10/06 00:59:26;;;;;;;8.07;2.33;;;17.00;99.90;;;;;;6116117;23;20416;-80
2022/10/06 01:02:11;;;;;;;6.50;1.80;;;17.00;99.90;;;;;;6117513;23;20140;-79
2022/10/06 01:04:41;;;;;;;6.15;2.53;;;17.00;99.90;;;;;;6117136;23;20006;-79
2022/10/06 01:07:07;;;;;;;6.22;2.45;;;17.00;99.90;;;;;;6117433;23;20016;-78
2022/10/06 01:09:36;;;;;;;2.20;1.58;;;17.10;99.90;;;;;;6117888;23;20010;-79
2022/10/06 01:12:04;;;;;;;6.53;1.90;;;17.00;99.90;;;;;;6117233;23;20093;-79
2022/10/06 01:14:31;;;;;;;3.50;2.03;;;17.00;99.90;;;;;;6116486;23;20438;-78
2022/10/06 01:17:18;;;;;;;3.88;1.98;;;17.00;99.90;;;;;;6117551;23;20032;-79
2022/10/06 01:19:49;;;;;;;11.73;3.13;;;17.00;99.90;;;;;;6116740;23;20018;-79
2022/10/06 01:22:26;;;;;;;6.47;2.10;;;17.00;99.90;;;;;;6117596;23;19998;-79
2022/10/06 01:24:52;;;;;;;7.50;1.45;;;17.10;99.90;;;;;;6116639;23;20082;-79
2022/10/06 01:27:19;;;;;;;5.45;2.00;;;17.00;99.90;;;;;;6116696;23;20435;-78
2022/10/06 01:29:45;;;;;;;8.32;2.08;;;17.00;99.90;;;;;;6114984;23;20010;-79
2022/10/06 01:32:11;;;;;;;2.85;1.67;;;16.90;99.90;;;;;;6118341;23;20291;-79
2022/10/06 01:34:43;;;;;;;1.50;1.40;;;16.90;99.90;;;;;;6117688;23;20081;-79
2022/10/06 01:37:09;;;;;;;2.05;1.65;;;16.90;99.90;;;;;;6118305;23;20002;-79
2022/10/06 01:39:34;;;;;;;4.70;1.95;;;16.90;99.90;;;;;;6116957;23;20021;-79
2022/10/06 01:42:00;;;;;;;2.17;1.60;;;16.90;99.90;;;;;;6117959;23;20008;-79
2022/10/06 01:44:25;;;;;;;2.03;1.20;;;16.90;99.90;;;;;;6117403;23;20001;-79
2022/10/06 01:46:53;;;;;;;6.30;1.65;;;17.10;99.90;;;;;;6118243;23;20043;-79
2022/10/06 01:49:19;;;;;;;6.88;1.98;;;17.10;99.90;;;;;;6116292;23;20477;-82
2022/10/06 01:51:49;;;;;;;5.53;2.08;;;17.20;99.90;;;;;;6118559;23;20002;-81
2022/10/06 01:54:14;;;;;;;6.85;2.05;;;17.30;99.90;;;;;;6116816;23;20009;-80
2022/10/06 01:56:40;;;;;;;3.67;1.52;;;17.30;99.90;;;;;;6118127;23;20453;-79
2022/10/06 01:59:06;;;;;;;3.70;1.70;;;17.30;99.90;;;;;;6117041;23;20006;-79
2022/10/06 02:01:32;;;;;;;7.57;1.63;;;17.30;99.90;;;;;;6118932;23;20029;-79
2022/10/06 02:03:58;;;;;;;4.00;1.60;;;17.40;99.90;;;;;;6117619;23;20198;-80
2022/10/06 02:06:25;;;;;;;7.32;1.77;;;17.40;99.90;;;;;;6118528;23;20297;-79
2022/10/06 02:08:50;;;;;;;3.83;1.60;;;17.40;99.90;;;;;;6117481;23;20314;-80
2022/10/06 02:11:17;;;;;;;3.78;1.88;;;17.50;99.90;;;;;;6118741;23;20013;-80
2022/10/06 02:13:47;;;;;;;9.85;1.50;;;17.50;99.90;;;;;;6117180;23;20443;-79
2022/10/06 02:16:13;;;;;;;12.90;1.80;;;17.50;99.90;;;;;;6118049;23;20312;-82
2022/10/06 02:18:44;;;;;;;6.53;1.70;;;17.60;99.90;;;;;;6117473;22;20013;-80
2022/10/06 02:21:19;;;;;;;3.38;1.60;;;17.50;99.90;;;;;;6118596;23;20081;-80
2022/10/06 02:23:48;;;;;;;3.75;1.90;;;17.50;99.90;;;;;;6115910;23;20006;-82
2022/10/06 02:26:19;;;;;;;2.40;1.52;;;17.40;99.90;;;;;;6117101;23;20002;-81
2022/10/06 02:28:48;;;;;;;2.75;1.77;;;17.40;99.90;;;;;;6116434;23;20021;-80
2022/10/06 02:31:15;;;;;;;5.35;1.10;;;17.30;99.90;;;;;;6117795;23;20016;-84
2022/10/06 02:33:44;;;;;;;0.63;0.55;;;17.20;99.90;;;;;;6117858;23;20069;-80
2022/10/06 02:36:12;;;;;;;2.17;0.50;;;16.80;99.90;;;;;;6117823;23;20010;-80
2022/10/06 02:38:38;;;;;;;3.70;0.55;;;16.50;99.90;;;;;;6116939;23;20010;-79
2022/10/06 02:41:04;;;;;;;0.50;0.50;;;16.00;99.90;;;;;;6118366;23;20010;-80
2022/10/06 02:43:30;;;;;;;0.80;0.50;;;15.50;99.90;;;;;;6117277;23;20033;-79
2022/10/06 02:45:58;;;;;;;4.43;1.50;;;15.20;99.90;;;;;;6118192;23;20005;-80
2022/10/06 02:48:25;;;;;;;0.85;0.43;;;15.00;99.90;;;;;;6117002;23;20041;-80
2022/10/06 02:51:00;;;;;;;2.17;0.60;;;14.80;99.90;;;;;;6118256;23;20006;-79
2022/10/06 02:53:26;;;;;;;8.18;0.82;;;14.50;99.90;;;;;;6117259;23;20009;-79
2022/10/06 02:56:04;;;;;;;1.90;0.60;;;14.40;99.90;;;;;;6118462;23;20275;-79
2022/10/06 02:58:30;;;;;;;0.52;0.52;;;14.30;99.90;;;;;;6117741;23;20006;-79
2022/10/06 03:01:07;;;;;;;2.03;0.50;;;14.20;99.90;;;;;;6118100;23;20006;-79
2022/10/06 03:03:36;;;;;;;4.03;0.50;;;14.20;99.90;;;;;;6117612;23;20053;-80
2022/10/06 03:06:20;;;;;;;0.68;0.63;;;14.20;99.90;;;;;;6118589;23;20010;-80
2022/10/06 03:08:59;;;;;;;4.28;0.38;;;14.20;99.90;;;;;;6116616;23;20014;-80
2022/10/06 03:11:31;;;;;;;0.80;0.52;;;14.10;99.90;;;;;;6118478;23;20014;-79
2022/10/06 03:13:57;;;;;;;1.20;0.40;;;14.10;99.90;;;;;;6117148;23;20495;-80
2022/10/06 03:16:25;;;;;;;1.45;0.70;;;14.20;99.90;;;;;;6117186;23;20002;-80
2022/10/06 03:18:57;;;;;;;7.07;0.50;;;14.20;99.90;;;;;;6117313;22;20025;-81
2022/10/06 03:21:25;;;;;;;1.08;0.45;;;14.30;99.90;;;;;;6117888;23;20010;-80
2022/10/06 03:23:55;;;;;;;0.30;0.30;;;14.40;99.90;;;;;;6118002;23;20327;-79
2022/10/06 03:26:25;;;;;;;3.50;0.40;;;14.50;99.90;;;;;;6117839;23;20010;-79
2022/10/06 03:28:51;;;;;;;2.63;0.80;;;14.50;99.90;;;;;;6118350;23;20010;-79
2022/10/06 03:31:18;;;;;;;2.55;0.60;;;14.60;99.90;;;;;;6118187;23;20006;-80
2022/10/06 03:33:43;;;;;;;2.70;0.57;;;14.70;99.90;;;;;;6117317;23;20029;-82
2022/10/06 03:36:12;;;;;;;5.63;1.00;;;14.70;99.90;;;;;;6118210;23;20012;-81
2022/10/06 03:38:38;;;;;;;2.80;0.98;;;14.70;99.90;;;;;;6117109;23;20013;-81
2022/10/06 03:41:19;;;;;;;3.63;0.82;;;14.70;99.90;;;;;;6118056;23;20018;-80
2022/10/06 03:43:46;;;;;;;5.25;0.90;;;14.70;99.90;;;;;;6117344;23;20006;-80
2022/10/06 03:46:14;;;;;;;7.50;1.05;;;14.80;99.90;;;;;;6115464;23;20039;-79
2022/10/06 03:48:40;;;;;;;7.93;0.77;;;14.80;99.90;;;;;;6116685;23;20328;-80
2022/10/06 03:51:10;;;;;;;3.55;0.88;;;14.70;99.90;;;;;;6117612;23;20002;-81
2022/10/06 03:53:35;;;;;;;4.53;1.15;;;14.70;99.90;;;;;;6116561;23;20037;-79
2022/10/06 03:56:04;;;;;;;2.22;0.75;;;14.60;99.90;;;;;;6116323;23;20002;-78
2022/10/06 03:58:33;;;;;;;4.07;0.75;;;14.70;99.90;;;;;;6114310;23;20008;-80
2022/10/06 04:01:06;;;;;;;3.78;0.60;;;14.70;99.90;;;;;;6116273;23;20010;-79
2022/10/06 04:03:32;;;;;;;4.13;0.75;;;14.70;99.90;;;;;;6116963;23;20006;-79
2022/10/06 04:06:00;;;;;;;3.78;0.85;;;14.60;99.90;;;;;;6117934;23;20009;-80
2022/10/06 04:08:28;;;;;;;7.38;1.08;;;14.70;99.90;;;;;;6115159;23;20017;-80
2022/10/06 04:11:08;;;;;;;4.55;1.05;;;14.70;99.90;;;;;;6115802;23;19998;-79
2022/10/06 04:13:34;;;;;;;3.58;0.70;;;14.60;99.90;;;;;;6116500;23;19998;-82
2022/10/06 04:16:21;;;;;;;9.95;1.08;;;14.70;99.90;;;;;;6118010;23;19998;-80
2022/10/06 04:18:55;;;;;;;3.50;0.90;;;14.70;99.90;;;;;;6115268;23;20022;-79
2022/10/06 04:21:22;;;;;;;6.20;0.80;;;14.60;99.90;;;;;;6117005;23;20006;-80
2022/10/06 04:23:48;;;;;;;5.85;0.98;;;14.70;99.90;;;;;;6117112;23;20006;-79
2022/10/06 04:26:19;;;;;;;9.43;1.42;;;14.70;99.90;;;;;;6118260;23;20006;-80
2022/10/06 04:28:52;;;;;;;3.38;0.95;;;14.70;99.90;;;;;;6116462;23;20335;-80
2022/10/06 04:31:21;;;;;;;7.03;0.90;;;14.70;99.90;;;;;;6117046;23;20038;-79
2022/10/06 04:33:55;;;;;;;10.77;1.77;;;14.70;99.90;;;;;;6115538;23;20056;-79
2022/10/06 04:36:26;;;;;;;6.65;1.08;;;14.70;99.90;;;;;;6113553;23;20436;-79
2022/10/06 04:38:57;;;;;;;6.80;1.45;;;14.70;99.90;;;;;;6116740;23;20034;-80
2022/10/06 04:41:25;;;;;;;3.90;1.20;;;14.70;99.90;;;;;;6116798;23;20013;-79
2022/10/06 04:43:54;;;;;;;7.05;1.27;;;14.60;99.90;;;;;;6114655;23;20013;-81
2022/10/06 04:46:21;;;;;;;4.22;1.10;;;14.60;99.90;;;;;;6112792;23;20446;-80
2022/10/06 04:48:55;;;;;;;5.82;1.17;;;14.60;99.90;;;;;;6112201;23;20025;-79
2022/10/06 04:51:22;;;;;;;7.82;1.08;;;14.60;99.90;;;;;;6113133;23;19998;-80
2022/10/06 04:53:54;;;;;;;8.35;1.10;;;14.50;99.90;;;;;;6115986;23;20062;-80
2022/10/06 04:56:25;;;;;;;5.45;0.90;;;14.50;99.90;;;;;;6117287;23;20423;-80
2022/10/06 04:58:53;;;;;;;4.28;1.20;;;14.40;99.90;;;;;;6116340;23;20415;-85
2022/10/06 05:01:20;;;;;;;5.47;1.40;;;14.40;99.90;;;;;;6117293;23;20360;-80
2022/10/06 05:03:47;;;;;;;5.05;1.17;;;14.30;99.90;;;;;;6114422;23;20010;-80
2022/10/06 05:06:24;;;;;;;3.05;0.88;;;14.40;99.90;;;;;;6117335;23;20006;-81
2022/10/06 05:08:56;;;;;;;8.82;1.83;;;14.30;99.90;;;;;;6118029;23;20309;-80
2022/10/06 05:11:22;;;;;;;6.28;1.55;;;14.10;99.90;;;;;;6119571;23;20037;-80
2022/10/06 05:13:49;;;;;;;9.75;1.80;;;14.10;99.90;;;;;;6118027;23;20447;-82
2022/10/06 05:16:15;;;;;;;4.13;1.02;;;14.10;99.90;;;;;;6118878;23;20018;-81
2022/10/06 05:18:42;;;;;;;7.15;1.27;;;14.00;99.90;;;;;;6118131;23;20002;-80
2022/10/06 05:21:11;;;;;;;7.07;1.67;;;13.90;99.90;;;;;;6119012;23;20029;-80
2022/10/06 05:23:38;;;;;;;4.10;1.30;;;14.00;99.90;;;;;;6118489;23;20029;-79
2022/10/06 05:26:04;;;;;;;7.80;1.58;;;13.90;99.90;;;;;;6117112;23;20006;-81
2022/10/06 05:28:31;;;;;;;7.50;1.00;;;13.90;99.90;;;;;;6116950;23;20013;-80
2022/10/06 05:31:13;;;;;;;6.25;1.35;;;13.80;99.90;;;;;;6119144;23;20064;-81
2022/10/06 05:33:40;;;;;;;11.15;1.70;;;13.80;99.90;;;;;;6117043;23;20028;-80
2022/10/06 05:36:11;;;;;;;8.13;1.10;;;13.70;99.90;;;;;;6118061;23;20442;-79
2022/10/06 05:38:37;;;;;;;4.85;1.20;;;13.70;99.90;;;;;;6118361;23;20009;-80
2022/10/06 05:41:09;;;;;;;6.75;1.30;;;13.60;99.90;;;;;;6118005;23;20006;-79
2022/10/06 05:43:34;;;;;;;7.32;1.30;;;13.60;99.90;;;;;;6118827;23;20077;-80
2022/10/06 05:46:07;;;;;;;6.65;1.60;;;13.50;99.90;;;;;;6118448;23;20040;-80
2022/10/06 05:48:33;;;;;;;9.98;2.35;;;13.50;99.90;;;;;;6115839;23;20022;-80
2022/10/06 05:51:04;;;;;;;7.20;1.60;;;13.50;99.90;;;;;;6117429;23;20028;-80
2022/10/06 05:53:32;;;;;;;10.30;1.45;;;13.40;99.90;;;;;;6117926;23;19998;-82
2022/10/06 05:56:07;;;;;;;6.70;1.77;;;13.40;99.90;;;;;;6119184;23;20029;-80
2022/10/06 05:58:34;;;;;;;12.20;1.87;;;13.40;99.90;;;;;;6118388;23;20157;-80
2022/10/06 06:01:11;;;;;;;15.75;1.67;;;13.40;99.90;;;;;;6119362;23;20237;-80
2022/10/06 06:03:39;;;;;;;6.07;1.65;;;13.30;99.90;;;;;;6118552;23;20367;-80
2022/10/06 06:06:20;;;;;;;13.93;2.03;;;13.20;99.90;;;;;;6119117;23;20002;-80
2022/10/06 06:08:50;;;;;;;9.40;2.25;;;13.30;99.90;;;;;;6118194;23;20021;-80
2022/10/06 06:11:16;;;;;;;16.58;2.55;;;13.20;99.90;;;;;;6119124;23;20002;-80
2022/10/06 06:13:41;;;;;;;8.07;1.85;;;13.20;99.90;;;;;;6118275;23;20016;-80
2022/10/06 06:16:12;;;;;;;8.35;2.15;;;13.20;99.90;;;;;;6119564;23;20109;-79
2022/10/06 06:18:38;;;;;;;11.43;2.25;;;13.20;99.90;;;;;;6117696;23;20328;-79
2022/10/06 06:21:07;;;;;;;8.38;1.95;;;13.20;99.90;;;;;;6119168;23;20014;-80
2022/10/06 06:23:38;;;;;;;11.15;1.83;;;13.20;99.90;;;;;;6118399;23;20029;-80
2022/10/06 06:26:06;;;;;;;19.63;2.40;;;13.30;99.90;;;;;;6119279;23;20013;-79
2022/10/06 06:28:34;;;;;;;11.13;2.60;;;13.30;99.90;;;;;;6118718;23;20014;-79
2022/10/06 06:31:11;;;;;;;18.45;2.33;;;13.30;99.90;;;;;;6118852;23;20014;-79
2022/10/06 06:33:39;;;;;;;18.27;2.17;;;13.40;99.90;;;;;;6118084;23;20450;-79
2022/10/06 06:36:16;;;;;;;11.63;1.98;;;13.40;99.90;;;;;;6119015;23;19994;-80
2022/10/06 06:38:46;;;;;;;7.70;1.98;;;13.40;99.90;;;;;;6118129;23;20002;-80
2022/10/06 06:41:22;;;;;;;19.35;2.30;;;13.40;99.90;;;;;;6119065;23;20089;-82
2022/10/06 06:43:54;;;;;;;10.20;2.10;;;13.40;99.90;;;;;;6118554;23;20006;-80
2022/10/06 06:46:24;;;;;;;16.35;2.08;;;13.40;99.90;;;;;;6119667;23;20009;-80
2022/10/06 06:48:54;;;;;;;19.75;2.05;;;13.40;99.90;;;;;;6118124;23;20474;-80
2022/10/06 06:51:22;;;;;;;12.30;2.03;;;13.40;99.90;;;;;;6119328;23;20013;-80
2022/10/06 06:53:49;;;;;;;8.25;1.30;;;13.50;99.90;;;;;;6118433;23;20005;-82
2022/10/06 06:56:15;;;;;;;13.00;2.17;;;13.60;99.90;;;;;;6118906;23;20009;-79
2022/10/06 06:58:45;;;;;;;15.35;2.38;;;13.70;99.90;;;;;;6118053;23;20010;-80
2022/10/06 07:01:13;;;;;;;15.43;2.30;;;13.60;99.90;;;;;;6118994;23;20064;-80
2022/10/06 07:03:40;;;;;;;15.70;2.53;;;13.60;99.90;;;;;;6118091;23;20006;-79
2022/10/06 07:06:13;;;;;;;15.48;3.15;;;13.70;99.90;;;;;;6119044;23;20002;-79
2022/10/06 07:08:41;;;;;;;11.35;1.73;;;13.70;99.90;;;;;;6117517;23;20443;-80
2022/10/06 07:11:33;;;;;;;18.65;2.92;;;13.70;99.90;;;;;;6118443;23;20006;-80
2022/10/06 07:14:11;;;;;;;17.17;2.35;;;13.80;99.90;;;;;;6116335;23;20060;-81
2022/10/06 07:25:06;;;;;;;11.73;2.00;;;13.90;99.90;;;;;;6117735;23;20079;-80
2022/10/06 07:27:35;;;;;;;12.90;2.65;;;13.90;99.90;;;;;;6118811;23;20021;-80
2022/10/06 07:30:01;;;;;;;11.93;1.77;;;13.90;99.90;;;;;;6117369;23;20008;-80
2022/10/06 07:32:29;;;;;;;8.68;1.88;;;14.00;99.90;;;;;;6118497;23;20041;-79
2022/10/06 07:34:57;;;;;;;16.02;2.25;;;14.10;99.90;;;;;;6117749;23;20064;-80
2022/10/06 07:37:22;;;;;;;10.98;2.05;;;14.00;99.90;;;;;;6118981;23;20010;-79
2022/10/06 07:39:48;;;;;;;17.52;2.10;;;14.10;99.90;;;;;;6118209;23;20420;-80
2022/10/06 07:42:16;;;;;;;11.70;1.83;;;14.10;99.90;;;;;;6119017;23;20024;-80
2022/10/06 07:44:42;;;;;;;15.45;2.47;;;14.10;99.90;;;;;;6117986;23;20304;-80
2022/10/06 07:47:08;;;;;;;12.02;2.10;;;14.10;99.90;;;;;;6118606;23;19999;-79
2022/10/06 07:49:34;;;;;;;18.45;2.38;;;14.10;99.90;;;;;;6118390;23;20008;-80
2022/10/06 07:52:02;;;;;;;7.53;2.00;;;14.10;99.90;;;;;;6118704;23;20017;-81
2022/10/06 07:54:28;;;;;;;15.73;2.55;;;14.10;99.90;;;;;;6117906;23;20030;-80
2022/10/06 07:57:00;;;;;;;14.95;2.40;;;14.10;99.90;;;;;;6118353;23;20002;-79
2022/10/06 07:59:25;;;;;;;14.50;1.58;;;14.20;99.90;;;;;;6117721;23;20006;-81
2022/10/06 08:01:51;;;;;;;14.05;1.80;;;14.20;99.90;;;;;;6118941;23;20052;-80
2022/10/06 08:04:17;;;;;;;11.27;1.98;;;14.20;99.90;;;;;;6117615;23;20372;-80
2022/10/06 08:06:43;;;;;;;17.35;2.28;;;14.20;99.90;;;;;;6118803;23;20030;-80
2022/10/06 08:09:08;;;;;;;10.68;2.40;;;14.40;99.90;;;;;;6117473;23;20340;-79
2022/10/06 08:11:34;;;;;;;11.13;2.28;;;14.40;99.90;;;;;;6119001;23;20058;-81
2022/10/06 08:14:03;;;;;;;11.90;2.08;;;14.50;99.90;;;;;;6117592;23;20447;-80
2022/10/06 08:16:29;;;;;;;14.32;2.15;;;14.40;99.90;;;;;;6118703;23;20065;-80
2022/10/06 08:18:56;;;;;;;17.00;2.33;;;14.40;99.90;;;;;;6117133;23;20110;-80
2022/10/06 08:21:24;;;;;;;12.77;2.58;;;14.40;99.90;;;;;;6118588;23;20016;-79
2022/10/06 08:23:51;;;;;;;13.10;2.17;;;14.50;99.90;;;;;;6117929;23;20002;-80
2022/10/06 08:26:18;;;;;;;20.20;2.88;;;14.50;99.90;;;;;;6118458;23;20010;-80
2022/10/06 08:28:49;;;;;;;8.93;2.35;;;14.60;99.90;;;;;;6118057;23;20101;-80
2022/10/06 08:31:16;;;;;;;15.43;2.75;;;14.60;99.90;;;;;;6118672;23;20013;-80
2022/10/06 08:33:43;;;;;;;13.07;1.77;;;14.70;99.90;;;;;;6118632;23;20162;-80
2022/10/06 08:36:15;;;;;;;12.88;1.83;;;14.70;99.90;;;;;;6117423;23;20009;-82
2022/10/06 08:38:41;;;;;;;13.27;2.55;;;14.70;99.90;;;;;;6118496;23;20339;-80
2022/10/06 08:41:27;;;;;;;9.23;1.80;;;14.80;99.90;;;;;;6116604;23;20010;-79
2022/10/06 08:44:14;;;;;;;12.82;2.22;;;14.80;99.90;;;;;;6117384;23;20006;-81
2022/10/06 08:46:55;;;;;;;17.95;2.35;;;14.80;99.90;;;;;;6118394;23;20002;-80
2022/10/06 08:49:24;;;;;;;15.75;3.10;;;14.80;99.90;;;;;;6117621;23;20046;-79
2022/10/06 08:52:16;;;;;;;11.82;1.90;;;14.80;99.90;;;;;;6117565;23;20314;-78
2022/10/06 08:55:00;;;;;;;13.27;2.55;;;14.80;99.90;;;;;;6116505;23;20029;-80
2022/10/06 08:58:04;;;;;;;10.30;2.35;;;14.80;99.90;;;;;;6117259;23;20075;-79
2022/10/06 09:00:32;;;;;;;8.23;1.80;;;14.80;99.90;;;;;;6062802;23;20058;-80
2022/10/06 09:03:03;;;;;;;16.25;2.90;;;14.80;99.90;;;;;;6113978;23;20007;-80
2022/10/06 09:05:33;;;;;;;11.20;2.15;;;14.90;99.90;;;;;;6115606;23;20013;-80
2022/10/06 09:08:37;;;;;;;13.18;2.53;;;15.00;99.90;;;;;;6117722;23;20013;-79
2022/10/06 09:11:24;;;;;;;10.32;1.85;;;14.90;99.90;;;;;;6117524;23;20014;-79
2022/10/06 09:14:09;;;;;;;14.25;1.95;;;15.00;99.90;;;;;;6117388;23;20006;-80
2022/10/06 09:16:40;;;;;;;16.17;2.13;;;15.10;99.90;;;;;;6117541;23;20010;-80
2022/10/06 09:19:25;;;;;;;12.27;1.67;;;15.00;99.90;;;;;;6116318;23;20427;-80
2022/10/06 09:21:52;;;;;;;6.95;1.88;;;15.00;99.90;;;;;;6118089;23;20481;-79
2022/10/06 09:24:33;;;;;;;8.25;1.40;;;15.00;99.90;;;;;;6117769;23;19998;-80
2022/10/06 09:26:59;;;;;;;21.80;2.92;;;15.00;99.90;;;;;;6117668;23;20080;-80
2022/10/06 09:29:30;;;;;;;10.70;1.92;;;15.00;99.90;;;;;;6117034;23;20021;-80
2022/10/06 09:31:56;;;;;;;13.05;2.35;;;15.10;99.90;;;;;;6118367;23;20320;-80
2022/10/06 09:34:36;;;;;;;11.85;1.90;;;15.10;99.90;;;;;;6117196;23;20014;-81
2022/10/06 09:37:07;;;;;;;17.20;1.83;;;15.20;99.90;;;;;;6118216;23;20070;-80
2022/10/06 09:39:42;;;;;;;17.70;3.15;;;15.20;99.90;;;;;;6117491;23;20315;-82
2022/10/06 09:42:21;;;;;;;9.45;2.00;;;15.20;99.90;;;;;;6117739;23;20006;-79
2022/10/06 09:44:57;;;;;;;15.90;2.35;;;15.30;99.90;;;;;;6117065;23;20009;-80
2022/10/06 09:47:46;;;;;;;21.27;4.10;;;15.40;99.90;;;;;;6117687;23;20112;-79
2022/10/06 09:50:16;;;;;;;11.68;2.28;;;15.40;99.90;;;;;;6116776;23;20061;-80
2022/10/06 09:53:03;;;;;;;10.10;1.48;;;15.40;99.90;;;;;;6118692;23;20356;-80
2022/10/06 09:55:38;;;;;;;8.77;1.70;;;15.50;99.90;;;;;;6117031;23;20029;-80
2022/10/06 09:58:33;;;;;;;7.47;1.80;;;15.60;99.90;;;;;;6119383;23;20006;-80
2022/10/06 10:01:25;;;;;;;16.17;2.50;;;15.70;99.90;;;;;;6118420;23;20010;-79
2022/10/06 10:03:56;;;;;;;13.20;2.53;;;15.70;99.90;;;;;;6119356;23;20009;-80
2022/10/06 10:06:33;;;;;;;13.85;1.95;;;15.70;99.90;;;;;;6118275;23;20013;-79
2022/10/06 10:09:28;;;;;;;13.07;1.60;;;15.70;99.90;;;;;;6119036;23;20010;-80
2022/10/06 10:12:27;;;;;;;14.90;2.45;;;15.60;99.90;;;;;;6099643;23;20006;-82
2022/10/06 10:15:00;;;;;;;11.73;1.90;;;15.70;99.90;;;;;;6118089;23;20081;-80
2022/10/06 10:17:37;;;;;;;9.68;1.83;;;15.80;99.90;;;;;;6119084;23;19998;-80
2022/10/06 10:20:28;;;;;;;15.82;2.38;;;15.90;99.90;;;;;;6118103;23;20032;-80
2022/10/06 10:22:57;;;;;;;8.18;1.70;;;15.90;99.90;;;;;;6119096;23;20006;-82
2022/10/06 10:25:44;;;;;;;11.98;2.17;;;15.80;99.90;;;;;;6118028;23;20033;-82
2022/10/06 10:28:18;;;;;;;8.05;1.50;;;15.70;99.90;;;;;;6117411;23;20014;-79
2022/10/06 10:31:16;;;;;;;6.20;1.67;;;15.70;99.90;;;;;;6113539;23;20013;-80
2022/10/06 10:34:43;;;;;;;10.45;1.75;;;15.70;99.90;;;;;;6114128;23;20014;-81
2022/10/06 10:37:17;;;;;;;11.32;2.03;;;15.70;99.90;;;;;;6098620;23;20033;-80
2022/10/06 10:39:50;;;;;;;11.63;1.70;;;15.80;99.90;;;;;;6117109;23;20092;-80
2022/10/06 10:42:50;;;;;;;15.77;2.15;;;15.90;99.90;;;;;;6118188;23;20009;-80
2022/10/06 10:45:27;;;;;;;6.55;1.55;;;15.90;99.90;;;;;;6117772;23;20073;-80
2022/10/06 10:47:54;;;;;;;8.23;1.45;;;15.90;99.90;;;;;;6118578;23;20021;-80
2022/10/06 10:50:46;;;;;;;12.52;2.33;;;16.00;99.90;;;;;;6117500;23;20041;-80
2022/10/06 10:53:51;;;;;;;6.60;1.42;;;16.10;99.90;;;;;;6076427;23;20343;-80
2022/10/06 10:56:20;;;;;;;14.77;2.40;;;16.10;99.90;;;;;;6073404;23;20006;-80
2022/10/06 10:59:10;;;;;;;12.48;2.25;;;16.10;99.90;;;;;;6117260;23;20097;-79
2022/10/06 11:01:54;;;;;;;8.13;1.58;;;16.20;99.90;;;;;;6115108;23;20040;-80
2022/10/06 11:04:20;;;;;;;9.82;1.95;;;16.20;99.90;;;;;;6116915;23;20446;-79
2022/10/06 11:07:10;;;;;;;8.40;2.00;;;16.20;99.90;;;;;;6117853;23;20007;-81
2022/10/06 11:09:55;;;;;;;6.63;1.73;;;16.20;99.90;;;;;;6117566;23;20037;-80
2022/10/06 11:12:56;;;;;;;12.88;1.75;;;16.20;99.90;;;;;;6118556;23;20157;-80
2022/10/06 11:15:49;;;;;;;10.27;1.98;;;16.20;99.90;;;;;;6117090;23;20014;-81
2022/10/06 11:18:22;;;;;;;11.68;1.88;;;16.30;99.90;;;;;;6112784;23;20010;-79
2022/10/06 11:20:56;;;;;;;9.40;1.50;;;16.30;99.90;;;;;;6113841;23;20032;-80
2022/10/06 11:23:48;;;;;;;10.47;1.83;;;16.30;99.90;;;;;;6115969;23;20323;-80
2022/10/06 11:26:39;;;;;;;9.60;2.10;;;16.30;99.90;;;;;;6117814;23;20455;-79
2022/10/06 11:29:43;;;;;;;8.30;1.98;;;16.20;99.90;;;;;;6117800;23;20510;-80
2022/10/06 11:32:40;;;;;;;9.65;2.03;;;16.20;99.90;;;;;;6118271;23;20002;-80
2022/10/06 11:35:26;;;;;;;15.00;2.13;;;16.30;99.90;;;;;;6072039;23;20006;-80
2022/10/06 11:38:01;;;;;;;10.70;2.03;;;16.20;99.90;;;;;;6118611;23;20002;-78
2022/10/06 11:40:46;;;;;;;10.33;1.43;;;16.20;99.90;;;;;;6115150;23;20006;-80
2022/10/06 11:43:36;;;;;;;14.05;2.17;;;16.20;99.90;;;;;;6117790;23;20032;-79
2022/10/06 11:46:33;;;;;;;12.63;2.75;;;16.30;99.90;;;;;;6116943;23;20014;-78
2022/10/06 11:49:27;;;;;;;16.42;2.40;;;16.30;99.90;;;;;;6118262;23;20442;-80
2022/10/06 11:51:53;;;;;;;13.30;2.97;;;16.40;99.90;;;;;;6118973;23;20018;-80
2022/10/06 11:54:38;;;;;;;13.80;2.58;;;16.40;99.90;;;;;;6117798;23;20037;-78
2022/10/06 11:57:21;;;;;;;12.40;2.30;;;16.50;99.90;;;;;;6117779;23;20316;-79
2022/10/06 11:59:54;;;;;;;11.45;1.75;;;16.70;99.90;;;;;;6117137;23;20013;-79
2022/10/06 12:02:32;;;;;;;11.25;2.03;;;16.80;99.90;;;;;;6118459;23;20010;-79
2022/10/06 12:05:13;;;;;;;16.08;1.70;;;16.80;99.90;;;;;;6117399;23;20432;-80
2022/10/06 12:07:56;;;;;;;10.05;2.05;;;16.80;99.90;;;;;;6118252;23;20014;-79
2022/10/06 12:10:28;;;;;;;10.48;2.08;;;16.80;99.90;;;;;;6117082;23;20018;-80
2022/10/06 12:12:57;;;;;;;12.32;1.92;;;16.80;99.90;;;;;;6117539;23;20045;-80
2022/10/06 12:15:48;;;;;;;13.20;2.15;;;16.90;99.90;;;;;;6115983;23;20665;-79
2022/10/06 12:18:33;;;;;;;15.35;2.38;;;17.00;99.90;;;;;;6072060;23;20013;-79
2022/10/06 12:21:43;;;;;;;9.02;1.60;;;17.00;99.90;;;;;;6116462;23;20010;-80
2022/10/06 12:24:29;;;;;;;10.35;1.52;;;17.10;99.90;;;;;;6103827;23;20018;-81
2022/10/06 12:27:16;;;;;;;10.70;1.70;;;17.30;99.90;;;;;;6116623;23;20079;-79
2022/10/06 12:29:58;;;;;;;13.02;2.05;;;17.20;99.90;;;;;;6116615;23;20456;-79
2022/10/06 12:32:42;;;;;;;13.13;2.08;;;17.30;99.90;;;;;;6116188;23;20085;-79
2022/10/06 12:35:26;;;;;;;14.63;2.30;;;17.30;99.90;;;;;;6116793;23;20297;-78
2022/10/06 12:37:54;;;;;;;11.15;1.92;;;17.50;99.60;;;;;;6118106;23;20086;-79
2022/10/06 12:40:39;;;;;;;13.40;1.85;;;17.60;98.00;;;;;;6115828;23;20037;-80
2022/10/06 12:43:13;;;;;;;9.07;2.03;;;17.50;98.90;;;;;;6117580;23;20006;-80
2022/10/06 12:45:46;;;;;;;13.40;2.72;;;17.50;98.60;;;;;;6116875;23;20233;-80
2022/10/06 12:48:32;;;;;;;6.35;1.75;;;17.60;99.70;;;;;;6117895;23;20368;-79
2022/10/06 12:51:33;;;;;;;16.85;2.33;;;17.60;98.90;;;;;;6115371;23;20008;-80
2022/10/06 12:54:20;;;;;;;10.15;1.92;;;17.60;98.80;;;;;;6116746;23;20006;-80
2022/10/06 12:56:58;;;;;;;9.25;1.90;;;17.60;98.50;;;;;;6117017;23;20010;-79
2022/10/06 12:59:40;;;;;;;8.40;1.83;;;17.60;94.30;;;;;;6115951;23;20053;-79
2022/10/06 13:02:20;;;;;;;9.63;1.50;;;17.60;93.50;;;;;;6115232;23;20025;-79
2022/10/06 13:05:01;;;;;;;7.72;1.67;;;17.50;92.80;;;;;;6116096;23;20013;-81
2022/10/06 13:07:29;;;;;;;11.88;1.90;;;17.50;94.10;;;;;;6116294;23;20045;-79
2022/10/06 13:10:14;;;;;;;9.00;2.53;;;17.30;94.20;;;;;;6113850;23;20013;-79
2022/10/06 13:12:46;;;;;;;10.52;1.70;;;17.30;93.90;;;;;;6114963;23;20083;-80
2022/10/06 13:15:22;;;;;;;13.23;2.40;;;17.40;94.80;;;;;;6115785;23;20408;-80
2022/10/06 13:17:54;;;;;;;16.90;2.33;;;17.40;96.40;;;;;;6116051;23;20002;-79
2022/10/06 13:20:33;;;;;;;13.40;2.03;;;17.40;94.50;;;;;;6114298;22;20054;-80
2022/10/06 13:23:21;;;;;;;28.08;3.20;;;17.40;96.20;;;;;;6116449;23;20006;-79